Time;durP1;ratioP1;P1;durP2;ratioP2;P2;SDS_P1;SDS_P2;PMS_P1;PMS_P2;Temp;Humidity;BMP_temperature;BMP_pressure;BME280_temperature;BME280_humidity;BME280_pressure;Samples;Min_cycle;Max_cycle;Signal;HPM_P1;HPM_P2
2021/07/24 00:01:12;;;;;;;;;0.00;0.00;;;;;29.39;36.88;99883.16;5053781;28;45481;-66
2021/07/24 00:03:38;;;;;;;;;0.00;0.00;;;;;29.39;37.15;99887.72;5053554;28;45542;-66
2021/07/24 00:06:04;;;;;;;;;0.00;0.00;;;;;29.39;36.48;99890.47;5053888;28;45448;-66
2021/07/24 00:08:29;;;;;;;;;0.00;0.00;;;;;29.38;37.06;99888.75;5053994;28;45520;-66
2021/07/24 00:10:55;;;;;;;;;0.33;0.33;;;;;29.38;36.61;99886.00;5053547;28;46211;-66
2021/07/24 00:13:20;;;;;;;;;0.00;0.00;;;;;29.38;36.94;99888.75;5053821;28;45361;-66
2021/07/24 00:15:46;;;;;;;;;0.00;0.00;;;;;29.36;37.03;99891.59;5053931;28;45893;-66
2021/07/24 00:18:11;;;;;;;;;0.00;0.00;;;;;29.38;36.94;99883.25;5052533;28;45565;-66
2021/07/24 00:20:37;;;;;;;;;0.00;0.00;;;;;29.37;36.97;99867.81;5053440;28;46126;-65
2021/07/24 00:23:05;;;;;;;;;0.00;0.00;;;;;29.36;36.66;99872.41;5053648;28;45421;-66
2021/07/24 00:25:30;;;;;;;;;0.00;0.00;;;;;29.37;37.11;99867.81;5053673;28;45495;-66
2021/07/24 00:27:56;;;;;;;;;0.00;0.00;;;;;29.36;36.61;99874.28;5053887;28;45490;-66
2021/07/24 00:30:21;;;;;;;;;0.00;0.00;;;;;29.36;37.15;99877.03;5053566;28;45412;-66
2021/07/24 00:32:47;;;;;;;;;0.00;0.00;;;;;29.35;36.95;99872.53;5053247;28;45741;-66
2021/07/24 00:35:12;;;;;;;;;0.00;0.00;;;;;29.34;37.14;99877.13;5055330;28;45504;-66
2021/07/24 00:37:37;;;;;;;;;0.00;0.00;;;;;29.35;36.71;99872.53;5057160;28;45504;-66
2021/07/24 00:40:03;;;;;;;;;0.00;0.00;;;;;29.33;37.03;99872.66;5056683;28;45721;-66
2021/07/24 00:42:31;;;;;;;;;0.00;0.00;;;;;29.33;37.05;99872.66;5056651;28;45444;-66
2021/07/24 00:45:07;;;;;;;;;0.00;0.00;;;;;29.33;36.90;99861.72;5056991;28;45452;-66
2021/07/24 00:47:38;;;;;;;;;0.00;0.00;;;;;29.32;36.52;99869.03;5057034;28;45388;-66
2021/07/24 00:50:04;;;;;;;;;0.00;0.00;;;;;29.32;36.98;99884.59;5056842;28;45608;-66
2021/07/24 00:52:30;;;;;;;;;0.00;0.00;;;;;29.31;37.06;99894.69;5056485;28;45445;-66
2021/07/24 00:54:58;;;;;;;;;0.00;0.00;;;;;29.31;37.02;99905.66;5056573;28;45740;-66
2021/07/24 00:57:23;;;;;;;;;0.00;0.00;;;;;29.30;37.14;99903.03;5056793;28;45725;-66
2021/07/24 00:59:48;;;;;;;;;0.00;0.00;;;;;29.29;36.70;99907.63;5056422;28;45413;-66
2021/07/24 01:02:14;;;;;;;;;0.00;0.00;;;;;29.29;37.17;99891.19;5056416;28;45429;-66
2021/07/24 01:04:40;;;;;;;;;0.00;0.00;;;;;29.29;36.96;99876.63;5038248;28;45405;-66
2021/07/24 01:07:09;;;;;;;;;0.00;0.00;;;;;29.27;37.04;99865.81;5056907;28;45912;-66
2021/07/24 01:09:34;;;;;;;;;0.00;0.00;;;;;29.28;36.83;99870.28;5056370;28;45480;-67
2021/07/24 01:12:04;;;;;;;;;0.00;0.00;;;;;29.28;36.89;99872.16;5056091;28;45436;-66
2021/07/24 01:14:32;;;;;;;;;0.00;0.00;;;;;29.27;36.99;99875.88;5055002;28;45472;-66
2021/07/24 01:16:59;;;;;;;;;0.00;0.00;;;;;29.25;37.12;99884.22;5056504;28;45554;-66
2021/07/24 01:19:25;;;;;;;;;0.00;0.00;;;;;29.25;37.06;99878.75;5055916;28;45582;-66
2021/07/24 01:21:51;;;;;;;;;0.00;0.00;;;;;29.25;36.75;99877.88;5056433;28;45395;-66
2021/07/24 01:24:16;;;;;;;;;0.00;0.00;;;;;29.25;37.15;99867.78;5056315;28;45468;-66
2021/07/24 01:26:45;;;;;;;;;0.00;0.00;;;;;29.23;36.94;99866.16;5056008;28;45435;-66
2021/07/24 01:29:18;;;;;;;;;0.00;0.00;;;;;29.22;36.84;99873.47;5037596;28;46171;-66
2021/07/24 01:31:44;;;;;;;;;0.00;0.00;;;;;29.22;37.02;99878.09;5055571;28;45475;-65
2021/07/24 01:34:10;;;;;;;;;0.00;0.00;;;;;29.23;37.23;99885.34;5055968;28;45572;-65
2021/07/24 01:36:36;;;;;;;;;0.00;0.00;;;;;29.21;37.07;99893.66;5055999;28;45405;-65
2021/07/24 01:39:02;;;;;;;;;0.00;0.00;;;;;29.18;36.98;99880.19;5037540;28;47357;-65
2021/07/24 01:41:27;;;;;;;;;0.00;0.00;;;;;29.20;37.38;99880.94;5055543;28;45485;-65
2021/07/24 01:43:53;;;;;;;;;0.00;0.00;;;;;29.16;37.24;99889.53;5037867;28;45609;-65
2021/07/24 01:46:18;;;;;;;;;0.00;0.00;;;;;29.17;37.38;99902.22;5037854;28;45526;-65
2021/07/24 01:53:58;;;;;;;;;0.00;0.00;;;;;29.14;37.08;99914.28;5055777;28;45524;-66
2021/07/24 01:56:28;;;;;;;;;0.00;0.00;;;;;29.12;37.28;99903.44;5055831;28;45747;-66
2021/07/24 01:58:54;;;;;;;;;0.00;0.00;;;;;29.14;37.46;99913.41;5055527;28;45545;-66
2021/07/24 02:01:24;;;;;;;;;0.00;0.00;;;;;29.12;37.78;99922.59;5055567;28;45567;-66
2021/07/24 02:03:54;;;;;;;;;0.00;0.00;;;;;29.11;37.67;99931.81;5055512;28;45475;-66
2021/07/24 02:06:26;;;;;;;;;0.00;0.00;;;;;29.10;37.19;99930.03;5055682;28;45506;-66
2021/07/24 02:08:52;;;;;;;;;0.00;0.00;;;;;29.08;37.68;99921.06;5055312;28;45356;-66
2021/07/24 02:11:19;;;;;;;;;0.00;0.00;;;;;29.07;37.68;99913.00;5055372;28;45493;-66
2021/07/24 02:13:49;;;;;;;;;0.00;0.00;;;;;29.07;37.58;99918.47;5055371;28;45449;-66
2021/07/24 02:16:15;;;;;;;;;0.00;0.00;;;;;29.04;37.73;99907.72;5055351;28;45359;-66
2021/07/24 02:18:41;;;;;;;;;0.00;0.00;;;;;29.05;37.45;99914.97;5055050;28;46479;-66
2021/07/24 02:21:08;;;;;;;;;0.00;0.00;;;;;29.04;37.46;99919.53;5055249;28;45447;-65
2021/07/24 02:23:33;;;;;;;;;0.00;0.00;;;;;29.03;37.42;99911.47;5055647;28;45412;-65
2021/07/24 02:25:59;;;;;;;;;0.00;0.00;;;;;29.03;37.91;99911.47;5055198;28;45445;-66
2021/07/24 02:28:24;;;;;;;;;0.00;0.00;;;;;29.02;37.83;99915.19;5054854;28;45552;-65
2021/07/24 02:30:49;;;;;;;;;0.00;0.00;;;;;29.00;37.68;99933.59;5055125;28;45531;-65
2021/07/24 02:33:15;;;;;;;;;0.00;0.00;;;;;28.99;37.64;99927.25;5055158;28;45512;-65
2021/07/24 02:35:40;;;;;;;;;0.00;0.00;;;;;28.99;37.73;99926.38;5055123;28;45524;-65
2021/07/24 02:38:06;;;;;;;;;0.00;0.00;;;;;28.99;37.81;99920.91;5055105;28;45478;-66
2021/07/24 02:40:33;;;;;;;;;0.00;0.00;;;;;28.98;37.38;99919.16;5055121;28;45448;-66
2021/07/24 02:42:59;;;;;;;;;0.00;0.00;;;;;28.97;37.40;99917.41;5054858;28;45377;-66
2021/07/24 02:45:25;;;;;;;;;0.00;0.00;;;;;28.96;37.51;99921.13;5054832;28;45437;-66
2021/07/24 02:47:50;;;;;;;;;0.00;0.00;;;;;28.93;37.71;99923.09;5053499;28;48305;-66
2021/07/24 02:50:16;;;;;;;;;0.00;0.00;;;;;28.91;37.63;99927.81;5055041;28;45349;-65
2021/07/24 02:52:42;;;;;;;;;0.00;0.00;;;;;28.91;37.81;99933.31;5055039;28;45528;-66
2021/07/24 02:55:09;;;;;;;;;0.00;0.00;;;;;28.91;37.59;99936.03;5055041;28;45863;-66
2021/07/24 02:57:35;;;;;;;;;0.00;0.00;;;;;28.90;37.93;99930.66;5054090;28;45473;-65
2021/07/24 03:00:02;;;;;;;;;0.00;0.00;;;;;28.89;37.75;99921.59;5054585;28;45504;-65
2021/07/24 03:02:27;;;;;;;;;0.00;0.00;;;;;28.87;37.51;99912.63;5054675;28;44889;-65
2021/07/24 03:04:53;;;;;;;;;0.00;0.00;;;;;28.87;38.00;99906.28;5054943;28;45746;-65
2021/07/24 03:07:18;;;;;;;;;0.00;0.00;;;;;28.85;37.95;99905.53;5036522;28;46051;-65
2021/07/24 03:09:43;;;;;;;;;0.00;0.00;;;;;28.83;38.28;99910.25;5054775;28;45366;-65
2021/07/24 03:12:09;;;;;;;;;0.00;0.00;;;;;28.83;37.81;99907.50;5054671;28;45659;-65
2021/07/24 03:14:35;;;;;;;;;0.00;0.00;;;;;28.80;38.13;99930.50;5054767;28;45443;-66
2021/07/24 03:17:01;;;;;;;;;0.00;0.00;;;;;28.80;37.62;99925.00;5054285;28;45366;-65
2021/07/24 03:19:26;;;;;;;;;0.00;0.00;;;;;28.79;38.22;99931.50;5054483;28;45437;-65
2021/07/24 03:21:51;;;;;;;;;0.00;0.00;;;;;28.78;37.79;99934.34;5019572;28;45549;-65
2021/07/24 03:24:17;;;;;;;;;0.00;0.00;;;;;28.77;37.82;99936.22;5054797;28;45405;-65
2021/07/24 03:26:43;;;;;;;;;0.00;0.00;;;;;28.76;38.40;99937.19;5053712;28;46296;-66
2021/07/24 03:29:09;;;;;;;;;0.00;0.00;;;;;28.75;38.17;99946.41;5054049;28;45485;-65
2021/07/24 03:31:35;;;;;;;;;0.00;0.00;;;;;28.74;37.96;99950.09;5054428;28;45449;-66
2021/07/24 03:34:00;;;;;;;;;0.00;0.00;;;;;28.74;38.18;99955.56;5053914;28;45529;-65
2021/07/24 03:36:26;;;;;;;;;0.00;0.00;;;;;28.74;38.24;99958.31;5054140;28;45486;-65
2021/07/24 03:38:51;;;;;;;;;0.00;0.00;;;;;28.73;37.94;99957.44;5054121;28;45480;-65
2021/07/24 03:41:16;;;;;;;;;0.00;0.00;;;;;28.73;38.37;99962.06;5054442;28;45465;-65
2021/07/24 03:43:42;;;;;;;;;0.00;0.00;;;;;28.70;38.03;99956.78;5054273;28;45456;-65
2021/07/24 03:46:19;;;;;;;;;0.00;0.00;;;;;28.71;38.49;99961.28;5054104;28;45557;-65
2021/07/24 03:48:44;;;;;;;;;0.00;0.00;;;;;28.71;38.57;99974.97;5035855;28;45457;-66
2021/07/24 03:51:12;;;;;;;;;0.00;0.00;;;;;28.69;38.48;99979.69;5035692;28;45486;-66
2021/07/24 03:53:38;;;;;;;;;0.00;0.00;;;;;28.69;38.17;99975.09;5036142;28;45700;-67
2021/07/24 03:56:04;;;;;;;;;0.00;0.00;;;;;28.68;38.56;99992.50;5053752;28;45504;-66
2021/07/24 03:58:29;;;;;;;;;0.00;0.00;;;;;28.68;38.07;99999.81;5053654;28;45469;-66
2021/07/24 04:00:54;;;;;;;;;0.00;0.00;;;;;28.66;38.78;100018.19;5054073;28;45386;-66
2021/07/24 04:03:24;;;;;;;;;0.00;0.00;;;;;28.67;38.83;100030.91;5054104;28;45506;-66
2021/07/24 04:05:52;;;;;;;;;0.00;0.00;;;;;28.66;38.72;100035.50;5053568;28;46489;-66
2021/07/24 04:08:17;;;;;;;;;0.00;0.00;;;;;28.65;38.85;100047.44;5053726;28;45461;-66
2021/07/24 04:10:43;;;;;;;;;0.00;0.00;;;;;28.64;38.35;100045.69;5056265;28;46123;-66
2021/07/24 04:13:08;;;;;;;;;0.00;0.00;;;;;28.63;38.15;100041.19;5057512;28;45437;-66
2021/07/24 04:15:38;;;;;;;;;0.00;0.00;;;;;28.63;38.24;100052.16;5057124;28;45461;-66
2021/07/24 04:18:04;;;;;;;;;0.00;0.00;;;;;28.63;38.83;100059.47;5057456;28;45511;-66
2021/07/24 04:20:30;;;;;;;;;0.00;0.00;;;;;28.62;38.74;100061.34;5057275;28;45496;-66
2021/07/24 04:23:03;;;;;;;;;0.00;0.00;;;;;28.61;38.14;100051.38;5057277;28;45456;-66
2021/07/24 04:25:28;;;;;;;;;0.00;0.00;;;;;28.60;38.91;100068.78;5057272;28;45769;-66
2021/07/24 04:27:54;;;;;;;;;0.00;0.00;;;;;28.59;38.62;100077.09;5056802;28;45332;-66
2021/07/24 04:30:20;;;;;;;;;0.00;0.00;;;;;28.58;38.13;100065.28;5056997;28;45409;-66
2021/07/24 04:32:45;;;;;;;;;0.00;0.00;;;;;28.56;38.19;100059.06;5056980;28;45389;-66
2021/07/24 04:35:11;;;;;;;;;0.00;0.00;;;;;28.56;39.04;100071.84;5056546;28;45410;-66
2021/07/24 04:37:36;;;;;;;;;0.00;0.00;;;;;28.53;38.98;100073.81;5056993;28;45468;-66
2021/07/24 04:40:03;;;;;;;;;0.00;0.00;;;;;28.53;39.19;100067.47;5039028;28;45490;-66
2021/07/24 04:42:28;;;;;;;;;0.00;0.00;;;;;28.50;39.01;100062.22;5038917;28;45535;-66
2021/07/24 04:44:54;;;;;;;;;0.00;0.00;;;;;28.48;38.85;100062.31;5038695;28;47059;-66
2021/07/24 04:47:19;;;;;;;;;0.00;0.00;;;;;28.49;38.80;100080.44;5056617;28;45402;-67
2021/07/24 04:49:49;;;;;;;;;0.00;0.00;;;;;28.48;38.65;100070.50;5056725;28;45453;-67
2021/07/24 04:52:16;;;;;;;;;0.00;0.00;;;;;28.46;38.98;100080.69;5056746;28;45521;-66
2021/07/24 04:54:43;;;;;;;;;0.00;0.00;;;;;28.45;38.93;100078.06;5056389;28;45365;-66
2021/07/24 04:57:10;;;;;;;;;0.00;0.00;;;;;28.43;38.83;100074.56;5038205;28;45467;-67
2021/07/24 04:59:37;;;;;;;;;0.00;0.00;;;;;28.43;38.79;100078.16;5056578;28;45421;-66
2021/07/24 05:02:03;;;;;;;;;0.00;0.00;;;;;28.42;39.21;100075.53;5056517;28;45351;-66
2021/07/24 05:04:31;;;;;;;;;0.00;0.00;;;;;28.42;38.84;100092.84;5054755;28;46399;-66
2021/07/24 05:06:57;;;;;;;;;0.00;0.00;;;;;28.42;39.16;100091.94;5056612;28;45434;-66
2021/07/24 05:09:23;;;;;;;;;0.00;0.00;;;;;28.41;39.12;100088.34;5038162;28;45687;-66
2021/07/24 05:11:48;;;;;;;;;0.00;0.00;;;;;28.41;39.30;100085.59;5056668;28;45540;-66
2021/07/24 05:14:13;;;;;;;;;0.00;0.00;;;;;28.40;38.74;100094.81;5056078;28;46201;-66
2021/07/24 05:16:40;;;;;;;;;0.00;0.00;;;;;28.41;39.32;100091.06;5056107;28;45487;-67
2021/07/24 05:19:06;;;;;;;;;0.00;0.00;;;;;28.40;38.89;100096.63;5056427;28;45572;-66
2021/07/24 05:21:31;;;;;;;;;1.00;0.00;;;;;28.38;39.27;100094.03;5055953;28;45460;-66
2021/07/24 05:23:57;;;;;;;;;0.00;0.00;;;;;28.42;39.29;100102.88;5055976;28;45477;-66
2021/07/24 05:26:22;;;;;;;;;0.00;0.00;;;;;28.45;38.69;100102.69;5038087;28;45683;-66
2021/07/24 05:28:49;;;;;;;;;0.00;0.00;;;;;28.45;38.87;100094.47;5037908;28;45411;-66
2021/07/24 05:31:18;;;;;;;;;0.00;0.00;;;;;28.48;39.26;100108.81;5056242;28;45415;-66
2021/07/24 05:33:44;;;;;;;;;0.00;0.00;;;;;28.46;39.09;100097.09;5055206;28;46238;-66
2021/07/24 05:36:10;;;;;;;;;0.00;0.00;;;;;28.49;38.60;100105.06;5055785;28;45564;-67
2021/07/24 05:38:37;;;;;;;;;0.00;0.00;;;;;28.50;38.93;100104.13;5056075;28;45447;-66
2021/07/24 05:41:02;;;;;;;;;0.00;0.00;;;;;28.53;39.20;100103.03;5056072;28;45505;-66
2021/07/24 05:43:27;;;;;;;;;0.00;0.00;;;;;28.51;38.75;100102.28;5055721;28;46475;-66
2021/07/24 05:45:53;;;;;;;;;0.00;0.00;;;;;28.55;38.82;100102.94;5055970;28;45711;-66
2021/07/24 05:48:18;;;;;;;;;0.00;0.00;;;;;28.54;39.04;100096.56;5055832;28;45775;-66
2021/07/24 05:50:43;;;;;;;;;0.00;0.00;;;;;28.55;38.83;100109.28;5055799;28;45502;-66
2021/07/24 05:53:09;;;;;;;;;0.00;0.00;;;;;28.55;39.12;100114.75;5055704;28;45358;-66
2021/07/24 05:55:34;;;;;;;;;0.00;0.00;;;;;28.57;38.74;100109.16;5037144;28;45443;-66
2021/07/24 05:57:59;;;;;;;;;0.00;0.00;;;;;28.57;39.20;100112.78;5055550;28;45442;-66
2021/07/24 06:00:25;;;;;;;;;0.00;0.00;;;;;28.60;38.86;100100.72;5055731;28;45451;-66
2021/07/24 06:02:50;;;;;;;;;0.00;0.00;;;;;28.59;38.92;100097.13;5055134;28;45489;-66
2021/07/24 06:05:17;;;;;;;;;0.00;0.00;;;;;28.62;39.27;100107.88;5055342;28;45459;-66
2021/07/24 06:07:42;;;;;;;;;0.00;0.00;;;;;28.62;39.17;100110.59;5055559;28;45723;-66
2021/07/24 06:10:08;;;;;;;;;0.00;0.00;;;;;28.65;39.13;100109.50;5055612;28;45424;-66
2021/07/24 06:12:33;;;;;;;;;0.00;0.00;;;;;28.66;38.78;100106.66;5055255;28;45512;-67
2021/07/24 06:15:00;;;;;;;;;0.00;0.00;;;;;28.67;39.08;100104.78;5037200;28;45553;-66
2021/07/24 06:17:26;;;;;;;;;0.00;0.00;;;;;28.68;38.87;100092.84;5055307;28;45509;-66
2021/07/24 06:19:51;;;;;;;;;0.33;0.33;;;;;28.69;38.90;100091.88;5055497;28;45458;-66
2021/07/24 06:22:17;;;;;;;;;0.67;0.67;;;;;28.70;39.00;100085.41;5054815;28;45564;-66
2021/07/24 06:24:42;;;;;;;;;0.00;0.00;;;;;28.71;38.80;100093.50;5054744;28;45426;-67
2021/07/24 06:27:07;;;;;;;;;1.67;1.67;;;;;28.72;39.17;100089.78;5054994;28;45535;-68
2021/07/24 06:29:33;;;;;;;;;0.00;0.00;;;;;28.75;38.64;100087.81;5036963;28;45496;-68
2021/07/24 06:31:58;;;;;;;;;1.00;0.00;;;;;28.75;38.46;100088.69;5053968;28;45539;-67
2021/07/24 06:34:24;;;;;;;;;0.33;0.33;;;;;28.77;38.60;100094.06;5054596;28;45695;-67
2021/07/24 06:36:49;;;;;;;;;0.00;0.00;;;;;28.78;38.87;100087.59;5054916;28;45336;-67
2021/07/24 06:39:15;;;;;;;;;0.00;0.00;;;;;28.79;39.09;100095.69;5055103;28;45510;-62
2021/07/24 06:41:41;;;;;;;;;0.00;0.00;;;;;28.82;39.03;100100.94;5054650;28;45389;-62
2021/07/24 06:44:07;;;;;;;;;0.67;0.67;;;;;28.85;38.87;100089.78;5055068;28;45544;-62
2021/07/24 06:46:33;;;;;;;;;0.67;0.67;;;;;28.89;38.98;100091.28;5054961;28;45773;-62
2021/07/24 06:48:59;;;;;;;;;0.00;0.00;;;;;28.92;38.78;100084.72;5055274;28;45423;-63
2021/07/24 06:51:25;;;;;;;;;1.00;0.00;;;;;28.96;38.71;100090.84;5054672;28;45469;-62
2021/07/24 06:53:51;;;;;;;;;0.00;0.00;;;;;29.00;38.65;100092.38;5054594;28;45826;-62
2021/07/24 06:56:17;;;;;;;;;0.00;0.00;;;;;29.01;38.82;100083.19;5054711;28;45774;-62
2021/07/24 06:58:42;;;;;;;;;0.00;0.00;;;;;29.06;38.66;100094.66;5054940;28;45509;-62
2021/07/24 07:01:08;;;;;;;;;0.00;0.00;;;;;29.08;38.59;100087.22;5054636;28;45702;-62
2021/07/24 07:03:34;;;;;;;;;0.00;0.00;;;;;29.11;38.53;100085.16;5054561;28;45721;-62
2021/07/24 07:06:04;;;;;;;;;0.00;0.00;;;;;29.16;38.20;100086.69;5054649;28;45476;-62
2021/07/24 07:08:30;;;;;;;;;0.00;0.00;;;;;29.18;38.46;100088.31;5053275;28;45390;-62
2021/07/24 07:11:01;;;;;;;;;0.00;0.00;;;;;29.21;38.37;100090.84;5054256;28;45431;-62
2021/07/24 07:13:26;;;;;;;;;0.00;0.00;;;;;29.25;38.15;100092.34;5053092;28;45409;-62
2021/07/24 07:15:52;;;;;;;;;0.00;0.00;;;;;29.26;38.61;100088.59;5054420;28;45675;-63
2021/07/24 07:18:17;;;;;;;;;0.00;0.00;;;;;29.29;38.58;100093.88;5054574;28;45469;-62
2021/07/24 07:20:45;;;;;;;;;0.00;0.00;;;;;29.34;38.21;100096.25;5036044;28;45663;-62
2021/07/24 07:23:11;;;;;;;;;1.00;0.00;;;;;29.37;37.90;100107.00;5054359;28;45833;-62
2021/07/24 07:25:38;;;;;;;;;0.00;0.00;;;;;29.39;38.40;100104.13;5054450;28;45424;-62
2021/07/24 07:28:03;;;;;;;;;0.00;0.00;;;;;29.41;38.13;100097.56;5054629;28;45481;-62
2021/07/24 07:30:29;;;;;;;;;0.00;0.00;;;;;29.45;38.23;100098.19;5053980;28;46319;-62
2021/07/24 07:32:54;;;;;;;;;0.00;0.00;;;;;29.45;38.14;100098.19;5053509;28;45525;-62
2021/07/24 07:35:20;;;;;;;;;0.00;0.00;;;;;29.50;37.82;100105.06;5054051;28;45439;-62
2021/07/24 07:37:50;;;;;;;;;0.00;0.00;;;;;29.53;38.03;100101.22;5054334;28;45504;-63
2021/07/24 07:40:17;;;;;;;;;0.00;0.00;;;;;29.55;37.91;100107.50;5052826;28;46395;-62
2021/07/24 07:42:43;;;;;;;;;0.00;0.00;;;;;29.58;38.31;100104.50;5051813;28;45432;-62
2021/07/24 07:45:08;;;;;;;;;0.00;0.00;;;;;29.60;38.06;100107.13;5039884;28;45725;-62
2021/07/24 07:47:36;;;;;;;;;0.00;0.00;;;;;29.61;37.91;100108.88;5057826;28;45612;-62
2021/07/24 07:50:02;;;;;;;;;0.00;0.00;;;;;29.62;37.73;100110.63;5049516;28;45423;-62
2021/07/24 07:52:27;;;;;;;;;0.00;0.00;;;;;29.62;37.78;100116.97;5057585;28;45848;-63
2021/07/24 07:54:53;;;;;;;;;0.00;0.00;;;;;29.63;37.70;100116.00;5057769;28;45783;-62
2021/07/24 07:57:18;;;;;;;;;0.00;0.00;;;;;29.62;37.68;100114.25;5057603;28;45907;-62
2021/07/24 07:59:43;;;;;;;;;0.00;0.00;;;;;29.63;37.68;100107.78;5039094;28;47493;-62
2021/07/24 08:02:09;;;;;;;;;0.00;0.00;;;;;29.64;37.21;100117.75;5057470;28;45363;-62
2021/07/24 08:04:34;;;;;;;;;0.00;0.00;;;;;29.65;37.86;100110.38;5057419;28;45492;-62
2021/07/24 08:07:06;;;;;;;;;0.00;0.00;;;;;29.66;37.84;100113.00;5039186;28;45794;-62
2021/07/24 08:09:32;;;;;;;;;0.00;0.00;;;;;29.67;37.57;100111.13;5057287;28;45417;-62
2021/07/24 08:11:58;;;;;;;;;0.00;0.00;;;;;29.66;37.83;100109.41;5057129;28;45442;-62
2021/07/24 08:14:24;;;;;;;;;0.00;0.00;;;;;29.67;37.40;100111.13;5056848;28;45419;-63
2021/07/24 08:16:49;;;;;;;;;0.00;0.00;;;;;29.67;37.49;100109.31;5056717;28;45486;-62
2021/07/24 08:19:14;;;;;;;;;0.00;0.00;;;;;29.68;37.76;100104.69;5056941;28;45510;-62
2021/07/24 08:21:40;;;;;;;;;0.00;0.00;;;;;29.68;37.50;100101.94;5056863;28;45561;-62
2021/07/24 08:24:06;;;;;;;;;0.00;0.00;;;;;29.69;37.68;100106.41;5055781;28;45500;-62
2021/07/24 08:26:31;;;;;;;;;0.00;0.00;;;;;29.70;37.87;100103.56;5057339;28;45537;-62
2021/07/24 08:28:57;;;;;;;;;0.00;0.00;;;;;29.69;37.55;100104.56;5055664;28;45523;-62
2021/07/24 08:31:22;;;;;;;;;0.00;0.00;;;;;29.70;37.54;100113.66;5057167;28;45647;-62
2021/07/24 08:33:47;;;;;;;;;0.00;0.00;;;;;29.70;37.32;100105.44;5056698;28;45408;-64
2021/07/24 08:36:14;;;;;;;;;0.00;0.00;;;;;29.72;37.68;100103.50;5057142;28;45749;-63
2021/07/24 08:38:39;;;;;;;;;0.00;0.00;;;;;29.71;37.64;100099.88;5056316;28;45555;-62
2021/07/24 08:41:04;;;;;;;;;0.00;0.00;;;;;29.73;37.63;100101.63;5056723;28;45476;-63
2021/07/24 08:43:30;;;;;;;;;0.00;0.00;;;;;29.74;37.59;100097.91;5056698;28;45362;-63
2021/07/24 08:45:56;;;;;;;;;0.00;0.00;;;;;29.74;37.43;100081.47;5057168;28;45378;-62
2021/07/24 08:48:23;;;;;;;;;0.00;0.00;;;;;29.73;37.60;100087.91;5056578;28;45444;-62
2021/07/24 08:50:49;;;;;;;;;0.00;0.00;;;;;29.70;37.51;100076.16;5056721;28;45516;-63
2021/07/24 08:53:20;;;;;;;;;0.00;0.00;;;;;29.71;37.54;100086.19;5056580;28;45573;-63
2021/07/24 08:55:46;;;;;;;;;0.00;0.00;;;;;29.71;37.74;100077.97;5055759;28;45511;-63
2021/07/24 08:58:18;;;;;;;;;0.00;0.00;;;;;29.72;37.57;100089.78;5056464;28;46291;-62
2021/07/24 09:00:44;;;;;;;;;0.00;0.00;;;;;29.73;37.34;100087.91;5056671;28;45480;-62
2021/07/24 09:03:16;;;;;;;;;0.00;0.00;;;;;29.74;37.42;100093.28;5038293;28;45457;-63
2021/07/24 09:05:43;;;;;;;;;0.00;0.00;;;;;29.75;37.66;100086.78;5056403;28;45517;-62
2021/07/24 09:08:12;;;;;;;;;0.00;0.00;;;;;29.73;37.47;100080.56;5056663;28;45391;-63
2021/07/24 09:10:37;;;;;;;;;0.00;0.00;;;;;29.77;37.48;100092.16;5056392;28;45679;-63
2021/07/24 09:13:04;;;;;;;;;0.00;0.00;;;;;29.78;37.87;100088.44;5056117;28;45564;-62
2021/07/24 09:15:30;;;;;;;;;0.00;0.00;;;;;29.78;37.84;100088.44;5038078;28;45438;-62
2021/07/24 09:17:55;;;;;;;;;0.00;0.00;;;;;29.77;37.44;100083.94;5056103;28;45488;-62
2021/07/24 09:20:26;;;;;;;;;0.00;0.00;;;;;29.79;37.48;100090.19;5055827;28;44901;-62
2021/07/24 09:22:53;;;;;;;;;0.00;0.00;;;;;29.79;37.54;100092.91;5052802;28;45866;-65
2021/07/24 09:25:21;;;;;;;;;0.00;0.00;;;;;29.80;37.67;100100.16;5024639;28;45490;-64
2021/07/24 09:27:50;;;;;;;;;0.00;0.00;;;;;29.81;37.92;100088.19;5035681;28;45802;-64
2021/07/24 09:30:24;;;;;;;;;0.00;0.00;;;;;29.81;37.79;100086.31;5018191;28;45803;-63
2021/07/24 09:33:10;;;;;;;;;0.33;0.33;;;;;29.82;37.89;100089.97;5035438;28;45429;-63
2021/07/24 09:35:45;;;;;;;;;0.00;0.00;;;;;29.83;37.78;100086.22;5035992;28;45430;-64
2021/07/24 09:38:33;;;;;;;;;0.00;0.00;;;;;29.83;37.63;100080.72;5035419;28;45423;-63
2021/07/24 09:41:01;;;;;;;;;0.00;0.00;;;;;29.84;37.68;100090.72;5035530;28;44794;-63
2021/07/24 09:43:38;;;;;;;;;0.00;0.00;;;;;29.83;37.79;100087.06;5046620;28;45429;-63
2021/07/24 09:46:22;;;;;;;;;0.00;0.00;;;;;29.82;37.76;100095.44;5063289;28;45643;-63
2021/07/24 09:48:52;;;;;;;;;0.33;0.00;;;;;29.80;37.48;100091.94;5066330;28;45756;-63
2021/07/24 09:51:34;;;;;;;;;0.00;0.00;;;;;29.79;37.62;100098.41;5055614;28;45381;-63
2021/07/24 09:53:59;;;;;;;;;0.00;0.00;;;;;29.78;37.52;100097.53;5065373;28;45422;-62
2021/07/24 09:56:42;;;;;;;;;0.00;0.00;;;;;29.80;37.71;100091.94;5035554;28;45751;-62
2021/07/24 09:59:18;;;;;;;;;0.00;0.00;;;;;29.80;37.95;100113.88;5055507;28;46114;-63
2021/07/24 10:01:52;;;;;;;;;0.00;0.00;;;;;29.80;37.60;100102.91;5040143;28;45635;-62
2021/07/24 10:04:34;;;;;;;;;0.00;0.00;;;;;29.80;37.63;100109.25;5041844;28;45668;-63
2021/07/24 10:07:03;;;;;;;;;0.00;0.00;;;;;29.79;37.78;100107.50;5055071;28;45445;-63
2021/07/24 10:09:33;;;;;;;;;0.00;0.00;;;;;29.81;37.86;100112.88;5055047;28;45673;-63
2021/07/24 10:12:00;;;;;;;;;0.00;0.00;;;;;29.80;37.75;100105.66;5055289;28;45859;-63
2021/07/24 10:14:25;;;;;;;;;0.00;0.00;;;;;29.80;37.76;100109.25;5035712;28;45536;-62
2021/07/24 10:16:56;;;;;;;;;0.00;0.00;;;;;29.81;37.70;100115.59;5035428;28;45436;-63
2021/07/24 10:19:23;;;;;;;;;0.00;0.00;;;;;29.80;37.97;100114.75;5035028;28;45438;-63
2021/07/24 10:21:50;;;;;;;;;0.00;0.00;;;;;29.81;37.74;100112.88;5044126;28;45666;-63
2021/07/24 10:24:22;;;;;;;;;0.00;0.00;;;;;29.81;37.84;100110.13;5055209;28;45544;-62
2021/07/24 10:27:07;;;;;;;;;0.00;0.00;;;;;29.81;38.13;100101.91;5055271;28;45701;-63
2021/07/24 10:29:42;;;;;;;;;0.00;0.00;;;;;29.82;37.93;100115.50;5045771;28;45353;-63
2021/07/24 10:32:13;;;;;;;;;0.00;0.00;;;;;29.82;37.76;100103.66;5048731;28;45453;-63
2021/07/24 10:34:51;;;;;;;;;0.00;0.00;;;;;29.82;37.74;100099.06;5035250;28;45788;-63
2021/07/24 10:37:38;;;;;;;;;0.00;0.00;;;;;29.83;38.08;100091.69;5035167;28;45746;-63
2021/07/24 10:40:21;;;;;;;;;0.00;0.00;;;;;29.84;37.87;100087.97;5034926;28;45488;-63
2021/07/24 10:42:48;;;;;;;;;0.00;0.00;;;;;29.83;38.07;100098.03;5023858;28;45466;-63
2021/07/24 10:45:31;;;;;;;;;0.00;0.00;;;;;29.85;37.45;100096.06;5054745;28;45974;-63
2021/07/24 10:48:12;;;;;;;;;0.00;0.00;;;;;29.83;37.71;100092.56;5057728;28;45417;-63
2021/07/24 10:51:00;;;;;;;;;0.00;0.00;;;;;29.84;37.71;100087.97;5054878;28;46314;-63
2021/07/24 10:54:01;;;;;;;;;0.00;0.00;;;;;29.83;37.68;100075.25;5054478;28;45429;-63
2021/07/24 10:56:41;;;;;;;;;0.00;0.00;;;;;29.83;37.78;100070.63;5054556;28;45745;-62
2021/07/24 10:59:13;;;;;;;;;0.00;0.00;;;;;29.83;37.69;100070.63;5054740;28;45425;-62
2021/07/24 11:01:47;;;;;;;;;0.00;0.00;;;;;29.82;37.79;100060.69;5054445;28;45447;-62
2021/07/24 11:04:42;;;;;;;;;0.00;0.00;;;;;29.85;37.75;100073.25;5054613;28;45510;-62
2021/07/24 11:07:13;;;;;;;;;0.00;0.00;;;;;29.85;38.04;100076.00;5040889;28;45856;-62
2021/07/24 11:09:40;;;;;;;;;0.00;0.00;;;;;29.85;37.46;100078.75;5035179;28;45500;-62
2021/07/24 11:12:07;;;;;;;;;0.00;0.00;;;;;29.84;37.54;100068.78;5034473;28;45526;-62
2021/07/24 11:14:38;;;;;;;;;0.00;0.00;;;;;29.84;37.47;100071.53;5034143;28;46315;-62
2021/07/24 11:17:06;;;;;;;;;0.00;0.00;;;;;29.82;37.39;100076.25;5034690;28;45951;-62
2021/07/24 11:19:39;;;;;;;;;0.00;0.00;;;;;29.82;37.79;100081.75;5034061;28;45489;-65
2021/07/24 11:22:17;;;;;;;;;0.00;0.00;;;;;29.82;37.69;100074.38;5034394;28;46087;-64
2021/07/24 11:24:49;;;;;;;;;0.00;0.00;;;;;29.83;37.76;100069.75;5016332;28;45459;-63
2021/07/24 11:27:36;;;;;;;;;0.00;0.00;;;;;29.85;37.67;100073.25;5034465;28;45459;-64
2021/07/24 11:30:04;;;;;;;;;0.00;0.00;;;;;29.85;37.70;100065.03;5046285;28;45579;-64
2021/07/24 11:32:32;;;;;;;;;0.00;0.00;;;;;29.86;37.80;100072.28;5036066;28;46296;-63
2021/07/24 11:35:06;;;;;;;;;0.00;0.00;;;;;29.86;37.72;100066.81;5053752;28;45413;-64
2021/07/24 11:37:42;;;;;;;;;0.00;0.00;;;;;29.88;37.86;100067.56;5053037;28;45777;-64